< Typhoon 198519 1985 Season Typhoon 198521 >
Typhoon 198520 (BRENDA)
General InformationTrack Information on Google MapsDetailed Wind InformationList of All Images || Disaster Info.ResourceGoogle EarthGE AnimationAtom FeedGeoJSON
Detalied Best Track (Time Zone = UTC)
Year Month Day Hour Lat. Long. Pressure (hPa) Wind (kt) Class Image Chart
1985 9 30 00 16.0 130.9 1000 0 2 Image Chart
1985 9 30 06 15.9 130.5 996 0 2 Image Chart
1985 9 30 12 15.9 130.2 996 35 3 Image Chart
1985 9 30 18 15.9 130.1 994 40 3 Image Chart
1985 10 1 00 16.5 129.9 990 60 4 Image Chart
1985 10 1 06 17.3 129.5 990 60 4 Image Chart
1985 10 1 12 17.8 129.2 985 65 5 Image Chart
1985 10 1 18 17.6 128.7 985 65 5 Image Chart
1985 10 2 00 17.5 128.9 980 70 5 Image Chart
1985 10 2 06 18.2 128.2 980 70 5 Image Chart
1985 10 2 12 18.6 127.2 975 80 5 Image Chart
1985 10 2 18 19.2 126.5 970 80 5 Image Chart
1985 10 3 00 19.7 125.3 965 80 5 Image Chart
1985 10 3 06 20.6 124.3 965 80 5 Image Chart
1985 10 3 12 21.6 123.3 965 75 5 Image Chart
1985 10 3 18 22.9 123.0 960 75 5 Image Chart
1985 10 4 00 24.5 122.8 955 85 5 Image Chart
1985 10 4 06 26.4 122.4 960 85 5 Image Chart
1985 10 4 12 27.6 123.6 960 85 5 Image Chart
1985 10 4 18 29.8 125.0 960 85 5 Image Chart
1985 10 5 00 32.2 126.2 980 70 5 Image Chart
1985 10 5 06 34.0 128.0 990 60 4 Image Chart
1985 10 5 12 35.0 130.0 992 0 6 Image Chart
1985 10 5 18 36.8 131.2 992 0 6 Image Chart
1985 10 6 00 38.0 132.0 992 0 6 Image Chart
1985 10 6 06 39.5 132.5 984 0 6 Image Chart
1985 10 6 12 40.5 133.0 986 0 6 Image Chart
1985 10 6 18 41.0 134.0 988 0 6 Image Chart
1985 10 7 00 42.0 136.0 988 0 6 Image Chart
1985 10 7 06 42.0 137.0 992 0 6 Image Chart
1985 10 7 12 42.0 139.0 994 0 6 Image Chart
1985 10 7 18 42.0 140.0 996 0 6 Image Chart
1985 10 8 00 42.0 141.0 996 0 6 Image Chart
1985 10 8 06 41.0 143.0 1000 0 6 Image Chart
1985 10 8 12 40.0 145.0 1004 0 6 Image Chart
1985 10 8 18 38.0 147.0 1008 0 6 Image Chart
Japan Meteorological Agency Best Track Data | Correction Date : 1992-10-21
< Typhoon 198519 1985 Season Typhoon 198521 >

Help